Time;durP1;ratioP1;P1;durP2;ratioP2;P2;SDS_P1;SDS_P2;PMS_P1;PMS_P2;Temp;Humidity;BMP_temperature;BMP_pressure;BME280_temperature;BME280_humidity;BME280_pressure;Samples;Min_cycle;Max_cycle;Signal;HPM_P1;HPM_P2
2021/03/04 10:18:20;;;;;;;54.55;13.15;;;;;;;12.16;51.88;100613.31;21141387;27;20404;-72
2021/03/04 10:28:21;;;;;;;22.98;10.32;;;;;;;12.23;51.61;100598.91;21077341;28;20048;-72
2021/03/04 10:38:22;;;;;;;22.98;10.43;;;;;;;12.49;51.51;100608.75;21071312;28;20048;-71
2021/03/04 10:48:23;;;;;;;25.98;11.60;;;;;;;12.35;52.61;100608.66;21054917;28;20049;-72
2021/03/04 10:58:24;;;;;;;23.75;11.70;;;;;;;12.62;51.95;100607.06;21050478;28;20055;-73
2021/03/04 11:08:25;;;;;;;29.02;12.20;;;;;;;12.95;50.67;100601.59;21042332;28;20044;-72
2021/03/04 11:18:26;;;;;;;25.48;11.27;;;;;;;13.22;49.73;100585.91;21049432;28;20106;-72
2021/03/04 11:28:28;;;;;;;21.27;10.52;;;;;;;13.21;50.18;100568.44;21002777;28;20045;-71
2021/03/04 11:38:29;;;;;;;22.95;11.15;;;;;;;13.08;50.45;100557.00;20995635;28;20048;-71
2021/03/04 11:48:30;;;;;;;26.08;10.15;;;;;;;13.78;49.72;100542.00;20993232;28;20083;-72
2021/03/04 11:58:31;;;;;;;23.63;10.80;;;;;;;14.01;49.11;100531.69;20993831;28;20044;-72
2021/03/04 12:08:32;;;;;;;21.55;10.63;;;;;;;14.14;47.16;100513.28;20993066;28;20070;-73
2021/03/04 12:18:53;;;;;;;19.65;10.05;;;;;;;14.27;47.83;100493.09;20993930;28;20471;-74
2021/03/04 12:28:54;;;;;;;28.42;10.30;;;;;;;14.69;47.18;100472.63;20992557;28;20048;-72
2021/03/04 12:38:55;;;;;;;22.85;8.57;;;;;;;14.31;47.08;100457.69;20989760;28;20458;-71
2021/03/04 12:48:56;;;;;;;19.80;7.78;;;;;;;14.29;46.54;100464.84;20992316;28;20044;-72
2021/03/04 12:58:57;;;;;;;25.08;7.35;;;;;;;14.38;44.91;100444.97;20990400;28;20118;-72
2021/03/04 13:09:00;;;;;;;19.50;7.07;;;;;;;14.71;43.92;100444.41;20987254;28;20060;-72
2021/03/04 13:19:01;;;;;;;15.23;7.47;;;;;;;14.76;43.80;100431.75;20988518;28;20040;-72
2021/03/04 13:29:03;;;;;;;20.95;8.25;;;;;;;14.85;43.51;100433.72;20988136;28;20044;-72
2021/03/04 13:39:04;;;;;;;23.02;10.15;;;;;;;14.92;47.98;100429.72;20981298;28;20094;-72
2021/03/04 13:49:05;;;;;;;22.15;11.05;;;;;;;14.57;50.50;100419.03;20983832;28;20408;-73
2021/03/04 13:59:06;;;;;;;25.73;10.75;;;;;;;13.94;52.85;100417.25;20986099;28;20454;-72
2021/03/04 14:09:07;;;;;;;25.27;10.85;;;;;;;13.79;53.65;100407.75;20973575;28;20102;-71
2021/03/04 14:19:08;;;;;;;21.50;9.40;;;;;;;13.63;53.82;100392.16;20980436;28;20040;-71
2021/03/04 14:29:10;;;;;;;18.60;7.85;;;;;;;13.47;46.79;100403.78;20984990;28;20040;-71
2021/03/04 14:39:11;;;;;;;18.33;7.78;;;;;;;13.28;48.25;100389.22;21002113;28;20040;-71
2021/03/04 14:49:12;;;;;;;23.23;7.72;;;;;;;13.22;49.65;100380.88;20982666;28;20043;-71
2021/03/04 14:59:13;;;;;;;22.73;9.68;;;;;;;13.52;50.25;100359.63;20989287;28;20075;-71
2021/03/04 15:09:14;;;;;;;19.92;9.40;;;;;;;13.62;50.87;100347.53;20998046;28;20040;-71
2021/03/04 15:19:16;;;;;;;22.00;10.38;;;;;;;13.38;52.55;100350.03;20987841;28;20045;-71
2021/03/04 15:29:18;;;;;;;24.08;10.10;;;;;;;12.88;54.62;100328.81;20997697;28;20052;-71
2021/03/04 15:39:19;;;;;;;21.98;11.13;;;;;;;12.88;55.36;100318.31;20994804;28;20048;-72
2021/03/04 15:49:20;;;;;;;21.85;9.98;;;;;;;12.85;55.73;100304.44;20992960;28;20041;-73
2021/03/04 15:59:21;;;;;;;19.10;9.90;;;;;;;12.65;56.46;100291.75;20986113;28;20045;-72
2021/03/04 16:09:22;;;;;;;22.20;10.60;;;;;;;12.55;58.03;100293.28;20993054;28;20098;-72
2021/03/04 16:19:24;;;;;;;19.60;10.93;;;;;;;12.26;58.78;100303.00;20993259;28;20055;-72
2021/03/04 16:29:25;;;;;;;22.27;10.52;;;;;;;11.93;60.54;100297.25;20992339;28;20454;-71
2021/03/04 16:39:26;;;;;;;24.98;12.07;;;;;;;11.84;61.00;100284.66;20992429;28;20040;-72
2021/03/04 16:49:29;;;;;;;24.60;11.50;;;;;;;11.59;62.82;100287.91;20998766;28;20044;-72
2021/03/04 16:59:30;;;;;;;23.48;11.95;;;;;;;11.60;62.92;100292.22;21022261;28;20044;-72
2021/03/04 17:09:31;;;;;;;25.48;11.05;;;;;;;11.51;64.39;100293.63;20987116;28;20382;-71
2021/03/04 17:19:32;;;;;;;24.30;11.68;;;;;;;11.46;67.05;100279.09;20987332;28;20048;-71
2021/03/04 17:29:33;;;;;;;25.25;11.27;;;;;;;11.51;68.66;100325.06;20950349;28;64343;-72
2021/03/04 17:39:34;;;;;;;14.48;6.22;;;;;;;8.41;98.68;100405.88;20887313;28;20075;-70
2021/03/04 17:49:35;;;;;;;12.57;5.88;;;;;;;7.65;100.00;100398.78;20886971;28;20065;-71
2021/03/04 17:59:36;;;;;;;14.20;5.30;;;;;;;7.66;100.00;100400.47;20893386;28;20128;-72
2021/03/04 18:09:38;;;;;;;10.10;4.10;;;;;;;7.76;100.00;100408.75;20888656;28;20128;-72
2021/03/04 18:19:39;;;;;;;8.95;4.10;;;;;;;7.82;100.00;100402.44;20897481;28;20053;-70
2021/03/04 18:29:40;;;;;;;13.20;4.90;;;;;;;7.95;100.00;100375.75;20888980;28;20048;-70
2021/03/04 18:39:41;;;;;;;11.27;5.90;;;;;;;8.03;100.00;100388.44;20915436;28;20049;-71
2021/03/04 18:49:42;;;;;;;14.05;6.70;;;;;;;8.03;100.00;100385.84;20904992;28;20123;-70
2021/03/04 18:59:43;;;;;;;11.90;6.25;;;;;;;7.92;100.00;100382.88;20911508;28;20096;-70
2021/03/04 19:09:44;;;;;;;12.18;6.57;;;;;;;8.03;100.00;100378.00;20910465;28;20045;-70
2021/03/04 19:19:45;;;;;;;14.77;7.70;;;;;;;8.00;100.00;100378.16;20905500;28;20090;-70
2021/03/04 19:29:46;;;;;;;14.07;8.88;;;;;;;8.00;100.00;100373.81;20913595;28;20086;-71
2021/03/04 19:39:47;;;;;;;11.70;6.68;;;;;;;8.00;100.00;100375.56;20893023;28;20095;-71
2021/03/04 19:49:47;;;;;;;11.70;6.18;;;;;;;7.96;100.00;100371.41;20879726;28;20136;-72
2021/03/04 19:59:48;;;;;;;10.90;5.93;;;;;;;7.93;100.00;100382.78;20906872;28;20091;-72
2021/03/04 20:09:57;;;;;;;12.00;7.13;;;;;;;7.94;100.00;100389.69;20910188;28;20041;-71
2021/03/04 20:19:58;;;;;;;12.48;7.30;;;;;;;7.92;100.00;100403.72;20910040;28;20041;-72
2021/03/04 20:30:00;;;;;;;13.48;6.65;;;;;;;7.84;100.00;100403.19;20895373;28;20052;-72
2021/03/04 20:40:22;;;;;;;12.15;6.65;;;;;;;7.71;100.00;100419.38;20908244;28;20041;-71
2021/03/04 20:50:24;;;;;;;16.08;9.20;;;;;;;7.72;100.00;100420.19;20903135;28;20045;-70
2021/03/04 21:00:25;;;;;;;19.55;11.05;;;;;;;7.52;100.00;100418.41;20899421;28;20875;-71
2021/03/04 21:10:44;;;;;;;18.63;9.93;;;;;;;7.46;100.00;100423.91;20895181;28;20055;-71
2021/03/04 21:20:45;;;;;;;21.17;10.82;;;;;;;7.44;100.00;100422.25;20905603;28;20045;-71
2021/03/04 21:30:47;;;;;;;19.35;8.82;;;;;;;7.44;100.00;100435.28;20900632;28;20041;-71
2021/03/04 21:41:06;;;;;;;19.13;9.13;;;;;;;7.31;100.00;100434.94;20900822;28;20049;-70
2021/03/04 21:51:06;;;;;;;14.93;8.90;;;;;;;7.20;100.00;100443.16;20901973;28;20076;-71
2021/03/04 22:01:08;;;;;;;19.92;10.45;;;;;;;7.17;100.00;100445.03;20890985;28;20053;-68
2021/03/04 22:11:29;;;;;;;18.63;9.32;;;;;;;7.23;100.00;100447.38;20880476;28;20084;-70
2021/03/04 22:21:30;;;;;;;19.83;9.85;;;;;;;7.29;100.00;100460.16;20886953;28;20554;-69
2021/03/04 22:31:31;;;;;;;20.42;11.30;;;;;;;7.30;100.00;100464.47;20883461;28;20037;-69
2021/03/04 22:41:48;;;;;;;19.63;10.85;;;;;;;7.15;100.00;100470.28;20893335;28;20053;-68
2021/03/04 22:51:49;;;;;;;19.75;11.40;;;;;;;7.21;100.00;100476.06;20902072;28;20115;-69
2021/03/04 23:01:50;;;;;;;21.08;12.68;;;;;;;7.13;100.00;100493.75;20897546;28;20096;-68
2021/03/04 23:11:51;;;;;;;25.23;15.10;;;;;;;6.92;100.00;100510.19;20879585;28;20052;-69
2021/03/04 23:21:52;;;;;;;19.67;12.55;;;;;;;6.67;100.00;100515.44;20904236;28;20102;-69
2021/03/04 23:31:53;;;;;;;14.55;9.95;;;;;;;6.54;100.00;100531.56;20914008;28;20106;-68
2021/03/04 23:41:57;;;;;;;13.32;9.15;;;;;;;6.21;97.96;100544.81;20913950;28;20045;-69
2021/03/04 23:51:58;;;;;;;12.80;8.68;;;;;;;6.15;98.76;100551.97;20912891;28;20106;-69
